sensor_id;sensor_type;location;lat;lon;timestamp;pressure;altitude;pressure_sealevel;temperature;humidity
46614;BME280;32338;50.430;6.806;2023-02-16T00:00:59;65595.94;;;1.59;100.00
46614;BME280;32338;50.430;6.806;2023-02-16T00:03:26;65596.50;;;1.59;100.00
46614;BME280;32338;50.430;6.806;2023-02-16T00:05:53;65590.22;;;1.58;100.00
46614;BME280;32338;50.430;6.806;2023-02-16T00:08:20;65591.66;;;1.57;100.00
46614;BME280;32338;50.430;6.806;2023-02-16T00:10:46;65599.50;;;1.65;100.00
46614;BME280;32338;50.430;6.806;2023-02-16T00:13:28;65575.81;;;1.40;100.00
46614;BME280;32338;50.430;6.806;2023-02-16T00:16:15;65556.13;;;1.27;100.00
46614;BME280;32338;50.430;6.806;2023-02-16T00:18:42;65522.97;;;0.94;100.00
46614;BME280;32338;50.430;6.806;2023-02-16T00:21:09;65505.44;;;0.75;100.00
46614;BME280;32338;50.430;6.806;2023-02-16T00:23:36;65490.38;;;0.61;100.00
46614;BME280;32338;50.430;6.806;2023-02-16T00:26:03;65490.38;;;0.61;100.00
46614;BME280;32338;50.430;6.806;2023-02-16T00:28:30;65486.56;;;0.53;100.00
46614;BME280;32338;50.430;6.806;2023-02-16T00:30:57;65453.91;;;0.32;100.00
46614;BME280;32338;50.430;6.806;2023-02-16T00:33:25;65444.22;;;0.21;100.00
46614;BME280;32338;50.430;6.806;2023-02-16T00:35:52;65435.50;;;0.15;100.00
46614;BME280;32338;50.430;6.806;2023-02-16T00:38:18;65438.44;;;0.13;100.00
46614;BME280;32338;50.430;6.806;2023-02-16T00:40:45;65436.75;;;0.12;100.00
46614;BME280;32338;50.430;6.806;2023-02-16T00:43:23;65431.94;;;0.10;100.00
46614;BME280;32338;50.430;6.806;2023-02-16T00:45:50;65437.88;;;0.13;100.00
46614;BME280;32338;50.430;6.806;2023-02-16T00:48:17;65427.50;;;0.06;100.00
46614;BME280;32338;50.430;6.806;2023-02-16T00:50:45;65440.88;;;0.18;100.00
46614;BME280;32338;50.430;6.806;2023-02-16T00:53:12;65453.72;;;0.30;100.00
46614;BME280;32338;50.430;6.806;2023-02-16T00:55:40;65431.94;;;0.10;100.00
46614;BME280;32338;50.430;6.806;2023-02-16T00:58:14;65414.09;;;-0.07;100.00
46614;BME280;32338;50.430;6.806;2023-02-16T01:00:43;65425.25;;;0.04;100.00
46614;BME280;32338;50.430;6.806;2023-02-16T01:03:13;65426.94;;;0.05;100.00
46614;BME280;32338;50.430;6.806;2023-02-16T01:05:41;65417.44;;;-0.04;100.00
46614;BME280;32338;50.430;6.806;2023-02-16T01:08:11;65411.63;;;-0.11;100.00
46614;BME280;32338;50.430;6.806;2023-02-16T01:10:56;65414.44;;;-0.09;100.00
46614;BME280;32338;50.430;6.806;2023-02-16T01:13:41;65404.94;;;-0.18;100.00
46614;BME280;32338;50.430;6.806;2023-02-16T01:16:14;65391.22;;;-0.28;100.00
46614;BME280;32338;50.430;6.806;2023-02-16T01:18:42;65380.28;;;-0.36;100.00
46614;BME280;32338;50.430;6.806;2023-02-16T01:21:08;65383.06;;;-0.33;100.00
46614;BME280;32338;50.430;6.806;2023-02-16T01:23:37;65396.38;;;-0.28;100.00
46614;BME280;32338;50.430;6.806;2023-02-16T01:26:04;65383.19;;;-0.38;100.00
46614;BME280;32338;50.430;6.806;2023-02-16T01:28:33;65367.25;;;-0.50;100.00
46614;BME280;32338;50.430;6.806;2023-02-16T01:31:00;65368.00;;;-0.47;100.00
46614;BME280;32338;50.430;6.806;2023-02-16T01:33:26;65368.13;;;-0.52;100.00
46614;BME280;32338;50.430;6.806;2023-02-16T01:35:54;65366.13;;;-0.51;100.00
46614;BME280;32338;50.430;6.806;2023-02-16T01:38:24;65375.41;;;-0.45;100.00
46614;BME280;32338;50.430;6.806;2023-02-16T01:41:01;65363.88;;;-0.53;100.00
46614;BME280;32338;50.430;6.806;2023-02-16T01:43:38;65347.94;;;-0.66;100.00
46614;BME280;32338;50.430;6.806;2023-02-16T01:46:12;65328.41;;;-0.84;100.00
46614;BME280;32338;50.430;6.806;2023-02-16T01:48:40;65350.84;;;-0.68;100.00
46614;BME280;32338;50.430;6.806;2023-02-16T01:51:13;65341.59;;;-0.74;100.00
46614;BME280;32338;50.430;6.806;2023-02-16T01:53:44;65334.69;;;-0.83;100.00
46614;BME280;32338;50.430;6.806;2023-02-16T01:56:18;65336.00;;;-0.79;100.00
46614;BME280;32338;50.430;6.806;2023-02-16T01:58:51;65351.41;;;-0.67;100.00
46614;BME280;32338;50.430;6.806;2023-02-16T02:01:45;65358.88;;;-0.58;100.00
46614;BME280;32338;50.430;6.806;2023-02-16T02:04:26;65331.00;;;-0.84;100.00
46614;BME280;32338;50.430;6.806;2023-02-16T02:07:18;65358.66;;;-0.60;100.00
46614;BME280;32338;50.430;6.806;2023-02-16T02:09:54;65349.94;;;-0.66;100.00
46614;BME280;32338;50.430;6.806;2023-02-16T02:12:27;65356.44;;;-0.62;100.00
46614;BME280;32338;50.430;6.806;2023-02-16T02:14:57;65358.88;;;-0.58;100.00
46614;BME280;32338;50.430;6.806;2023-02-16T02:17:24;65349.16;;;-0.69;100.00
46614;BME280;32338;50.430;6.806;2023-02-16T02:19:58;65350.50;;;-0.66;100.00
46614;BME280;32338;50.430;6.806;2023-02-16T02:23:00;65357.19;;;-0.59;100.00
46614;BME280;32338;50.430;6.806;2023-02-16T02:28:54;65343.03;;;-0.75;100.00
46614;BME280;32338;50.430;6.806;2023-02-16T02:31:36;65330.22;;;-0.87;100.00
46614;BME280;32338;50.430;6.806;2023-02-16T02:34:14;65327.22;;;-0.92;100.00
46614;BME280;32338;50.430;6.806;2023-02-16T02:36:49;65319.50;;;-0.92;100.00
46614;BME280;32338;50.430;6.806;2023-02-16T02:39:26;65311.81;;;-1.04;100.00
46614;BME280;32338;50.430;6.806;2023-02-16T02:42:02;65307.78;;;-1.03;100.00
46614;BME280;32338;50.430;6.806;2023-02-16T02:44:34;65299.19;;;-1.13;100.00
46614;BME280;32338;50.430;6.806;2023-02-16T02:47:03;65294.53;;;-1.20;100.00
46614;BME280;32338;50.430;6.806;2023-02-16T02:49:30;65293.75;;;-1.23;100.00
46614;BME280;32338;50.430;6.806;2023-02-16T02:51:57;65291.75;;;-1.22;100.00
46614;BME280;32338;50.430;6.806;2023-02-16T02:54:27;65293.22;;;-1.23;100.00
46614;BME280;32338;50.430;6.806;2023-02-16T02:57:15;65299.41;;;-1.10;100.00
46614;BME280;32338;50.430;6.806;2023-02-16T03:00:05;65307.00;;;-1.06;100.00
46614;BME280;32338;50.430;6.806;2023-02-16T03:02:54;65293.41;;;-1.21;100.00
46614;BME280;32338;50.430;6.806;2023-02-16T03:05:25;65283.41;;;-1.30;100.00
46614;BME280;32338;50.430;6.806;2023-02-16T03:07:57;65279.13;;;-1.32;100.00
46614;BME280;32338;50.430;6.806;2023-02-16T03:10:32;65265.78;;;-1.44;100.00
46614;BME280;32338;50.430;6.806;2023-02-16T03:13:22;65275.94;;;-1.39;100.00
46614;BME280;32338;50.430;6.806;2023-02-16T03:15:53;65283.72;;;-1.32;100.00
46614;BME280;32338;50.430;6.806;2023-02-16T03:18:23;65288.41;;;-1.25;100.00
46614;BME280;32338;50.430;6.806;2023-02-16T03:21:10;65281.59;;;-1.27;100.00
46614;BME280;32338;50.430;6.806;2023-02-16T03:23:56;65278.38;;;-1.35;100.00
46614;BME280;32338;50.430;6.806;2023-02-16T03:26:41;65274.13;;;-1.36;100.00
46614;BME280;32338;50.430;6.806;2023-02-16T03:29:26;65286.53;;;-1.29;100.00
46614;BME280;32338;50.430;6.806;2023-02-16T03:31:55;65288.41;;;-1.25;100.00
46614;BME280;32338;50.430;6.806;2023-02-16T03:34:23;65293.63;;;-1.18;100.00
46614;BME280;32338;50.430;6.806;2023-02-16T03:36:53;65299.78;;;-1.12;100.00
46614;BME280;32338;50.430;6.806;2023-02-16T03:39:23;65295.09;;;-1.19;100.00
46614;BME280;32338;50.430;6.806;2023-02-16T03:41:52;65277.69;;;-1.31;100.00
46614;BME280;32338;50.430;6.806;2023-02-16T03:44:19;65275.25;;;-1.35;100.00
46614;BME280;32338;50.430;6.806;2023-02-16T03:46:46;65275.59;;;-1.37;100.00
46614;BME280;32338;50.430;6.806;2023-02-16T03:49:15;65268.56;;;-1.41;100.00
46614;BME280;32338;50.430;6.806;2023-02-16T03:51:41;65266.00;;;-1.41;100.00
46614;BME280;32338;50.430;6.806;2023-02-16T03:54:08;65270.03;;;-1.42;100.00
46614;BME280;32338;50.430;6.806;2023-02-16T03:56:35;65260.53;;;-1.51;100.00
46614;BME280;32338;50.430;6.806;2023-02-16T03:59:01;65262.75;;;-1.49;100.00
46614;BME280;32338;50.430;6.806;2023-02-16T04:01:28;65260.41;;;-1.47;100.00
46614;BME280;32338;50.430;6.806;2023-02-16T04:03:55;65271.91;;;-1.38;100.00
46614;BME280;32338;50.430;6.806;2023-02-16T04:06:24;65281.16;;;-1.32;100.00
46614;BME280;32338;50.430;6.806;2023-02-16T04:08:51;65279.50;;;-1.34;100.00
46614;BME280;32338;50.430;6.806;2023-02-16T04:11:18;65259.97;;;-1.52;100.00
46614;BME280;32338;50.430;6.806;2023-02-16T04:14:02;65236.25;;;-1.71;100.00
46614;BME280;32338;50.430;6.806;2023-02-16T04:16:29;65234.56;;;-1.73;100.00
46614;BME280;32338;50.430;6.806;2023-02-16T04:18:56;65229.78;;;-1.75;100.00
46614;BME280;32338;50.430;6.806;2023-02-16T04:21:24;65224.53;;;-1.82;100.00
46614;BME280;32338;50.430;6.806;2023-02-16T04:23:50;65221.75;;;-1.85;100.00
46614;BME280;32338;50.430;6.806;2023-02-16T04:26:17;65212.50;;;-1.91;100.00
46614;BME280;32338;50.430;6.806;2023-02-16T04:28:43;65219.09;;;-1.92;100.00
46614;BME280;32338;50.430;6.806;2023-02-16T04:31:10;65212.50;;;-1.91;100.00
46614;BME280;32338;50.430;6.806;2023-02-16T04:33:37;65222.66;;;-1.86;100.00
46614;BME280;32338;50.430;6.806;2023-02-16T04:36:04;65234.47;;;-1.80;100.00
46614;BME280;32338;50.430;6.806;2023-02-16T04:38:32;65221.53;;;-1.87;100.00
46614;BME280;32338;50.430;6.806;2023-02-16T04:40:59;65213.75;;;-1.94;100.00
46614;BME280;32338;50.430;6.806;2023-02-16T04:43:25;65226.00;;;-1.83;100.00
46614;BME280;32338;50.430;6.806;2023-02-16T04:45:52;65231.78;;;-1.75;100.00
46614;BME280;32338;50.430;6.806;2023-02-16T04:48:19;65253.66;;;-1.60;100.00
46614;BME280;32338;50.430;6.806;2023-02-16T04:50:45;65249.06;;;-1.59;100.00
46614;BME280;32338;50.430;6.806;2023-02-16T04:53:12;65258.66;;;-1.55;100.00
46614;BME280;32338;50.430;6.806;2023-02-16T04:55:44;65247.94;;;-1.60;100.00
46614;BME280;32338;50.430;6.806;2023-02-16T04:58:11;65244.72;;;-1.68;100.00
46614;BME280;32338;50.430;6.806;2023-02-16T05:00:37;65232.00;;;-1.73;100.00
46614;BME280;32338;50.430;6.806;2023-02-16T05:03:04;65223.22;;;-1.86;100.00
46614;BME280;32338;50.430;6.806;2023-02-16T05:05:31;65205.06;;;-2.00;100.00
46614;BME280;32338;50.430;6.806;2023-02-16T05:07:59;65197.94;;;-2.12;100.00
46614;BME280;32338;50.430;6.806;2023-02-16T05:10:26;65207.28;;;-1.98;100.00
46614;BME280;32338;50.430;6.806;2023-02-16T05:12:54;65204.06;;;-2.06;100.00
46614;BME280;32338;50.430;6.806;2023-02-16T05:15:38;65192.25;;;-2.12;100.00
46614;BME280;32338;50.430;6.806;2023-02-16T05:18:05;65200.72;;;-2.09;100.00
46614;BME280;32338;50.430;6.806;2023-02-16T05:20:31;65195.72;;;-2.14;100.00
46614;BME280;32338;50.430;6.806;2023-02-16T05:23:15;65197.03;;;-2.10;100.00
46614;BME280;32338;50.430;6.806;2023-02-16T05:25:42;65215.75;;;-1.95;100.00
46614;BME280;32338;50.430;6.806;2023-02-16T05:28:10;65207.63;;;-2.00;100.00
46614;BME280;32338;50.430;6.806;2023-02-16T05:30:37;65201.69;;;-2.03;100.00
46614;BME280;32338;50.430;6.806;2023-02-16T05:33:04;65204.84;;;-2.03;100.00
46614;BME280;32338;50.430;6.806;2023-02-16T05:35:32;65202.03;;;-2.05;100.00
46614;BME280;32338;50.430;6.806;2023-02-16T05:37:58;65203.38;;;-2.02;100.00
46614;BME280;32338;50.430;6.806;2023-02-16T05:40:25;65211.84;;;-1.99;100.00
46614;BME280;32338;50.430;6.806;2023-02-16T05:42:52;65203.38;;;-2.02;100.00
46614;BME280;32338;50.430;6.806;2023-02-16T05:45:20;65210.75;;;-2.00;100.00
46614;BME280;32338;50.430;6.806;2023-02-16T05:47:47;65217.44;;;-1.93;100.00
46614;BME280;32338;50.430;6.806;2023-02-16T05:50:13;65214.31;;;-1.94;100.00
46614;BME280;32338;50.430;6.806;2023-02-16T05:52:40;65217.31;;;-1.89;100.00
46614;BME280;32338;50.430;6.806;2023-02-16T05:55:07;65226.00;;;-1.83;100.00
46614;BME280;32338;50.430;6.806;2023-02-16T05:57:33;65242.16;;;-1.68;100.00
46614;BME280;32338;50.430;6.806;2023-02-16T06:00:01;65260.97;;;-1.46;100.00
46614;BME280;32338;50.430;6.806;2023-02-16T06:02:29;65284.16;;;-1.27;100.00
46614;BME280;32338;50.430;6.806;2023-02-16T06:04:56;65308.69;;;-1.04;100.00
46614;BME280;32338;50.430;6.806;2023-02-16T06:07:23;65321.31;;;-0.95;100.00
46614;BME280;32338;50.430;6.806;2023-02-16T06:09:50;65321.72;;;-0.90;100.00
46614;BME280;32338;50.430;6.806;2023-02-16T06:12:16;65334.53;;;-0.78;100.00
46614;BME280;32338;50.430;6.806;2023-02-16T06:14:43;65338.56;;;-0.79;100.00
46614;BME280;32338;50.430;6.806;2023-02-16T06:17:10;65366.59;;;-0.58;100.00
46614;BME280;32338;50.430;6.806;2023-02-16T06:19:38;65368.13;;;-0.52;100.00
46614;BME280;32338;50.430;6.806;2023-02-16T06:22:04;65377.19;;;-0.48;100.00
46614;BME280;32338;50.430;6.806;2023-02-16T06:24:31;65387.78;;;-0.38;100.00
46614;BME280;32338;50.430;6.806;2023-02-16T06:26:58;65377.50;;;-0.38;100.00
46614;BME280;32338;50.430;6.806;2023-02-16T06:29:24;65387.09;;;-0.34;100.00
46614;BME280;32338;50.430;6.806;2023-02-16T06:31:51;65385.97;;;-0.35;100.00
46614;BME280;32338;50.430;6.806;2023-02-16T06:34:18;65391.56;;;-0.30;100.00
46614;BME280;32338;50.430;6.806;2023-02-16T06:36:46;65391.00;;;-0.30;100.00
46614;BME280;32338;50.430;6.806;2023-02-16T06:39:13;65396.59;;;-0.25;100.00
46614;BME280;32338;50.430;6.806;2023-02-16T06:41:39;65400.50;;;-0.22;100.00
46614;BME280;32338;50.430;6.806;2023-02-16T06:44:08;65407.75;;;-0.15;100.00
46614;BME280;32338;50.430;6.806;2023-02-16T06:46:36;65413.47;;;-0.14;100.00
46614;BME280;32338;50.430;6.806;2023-02-16T06:49:03;65420.38;;;-0.06;100.00
46614;BME280;32338;50.430;6.806;2023-02-16T06:51:30;65425.03;;;0.01;100.00
46614;BME280;32338;50.430;6.806;2023-02-16T06:53:58;65440.47;;;0.13;100.00
46614;BME280;32338;50.430;6.806;2023-02-16T06:56:25;65459.06;;;0.32;100.00
46614;BME280;32338;50.430;6.806;2023-02-16T06:58:52;65443.47;;;0.18;100.00
46614;BME280;32338;50.430;6.806;2023-02-16T07:01:18;65450.16;;;0.24;100.00
46614;BME280;32338;50.430;6.806;2023-02-16T07:03:48;65458.31;;;0.29;100.00
46614;BME280;32338;50.430;6.806;2023-02-16T07:06:14;65469.13;;;0.42;100.00
46614;BME280;32338;50.430;6.806;2023-02-16T07:08:41;65462.66;;;0.38;100.00
46614;BME280;32338;50.430;6.806;2023-02-16T07:11:09;65462.09;;;0.38;100.00
46614;BME280;32338;50.430;6.806;2023-02-16T07:13:36;65472.47;;;0.45;100.00
46614;BME280;32338;50.430;6.806;2023-02-16T07:16:03;65486.09;;;0.60;100.00
46614;BME280;32338;50.430;6.806;2023-02-16T07:18:31;65495.03;;;0.68;100.00
46614;BME280;32338;50.430;6.806;2023-02-16T07:20:58;65501.75;;;0.74;100.00
46614;BME280;32338;50.430;6.806;2023-02-16T07:23:25;65518.28;;;0.87;100.00
46614;BME280;32338;50.430;6.806;2023-02-16T07:25:51;65518.47;;;0.90;100.00
46614;BME280;32338;50.430;6.806;2023-02-16T07:28:20;65540.63;;;1.08;100.00
46614;BME280;32338;50.430;6.806;2023-02-16T07:30:46;65551.09;;;1.22;100.00
46614;BME280;32338;50.430;6.806;2023-02-16T07:33:14;65562.41;;;1.28;100.00
46614;BME280;32338;50.430;6.806;2023-02-16T07:35:41;65569.31;;;1.37;100.00
46614;BME280;32338;50.430;6.806;2023-02-16T07:38:07;65556.69;;;1.27;100.00
46614;BME280;32338;50.430;6.806;2023-02-16T07:40:34;65573.03;;;1.38;100.00
46614;BME280;32338;50.430;6.806;2023-02-16T07:43:02;65572.88;;;1.42;100.00
46614;BME280;32338;50.430;6.806;2023-02-16T07:45:33;65569.31;;;1.37;100.00
46614;BME280;32338;50.430;6.806;2023-02-16T07:48:04;65572.88;;;1.42;100.00
46614;BME280;32338;50.430;6.806;2023-02-16T07:50:31;65567.44;;;1.33;100.00
46614;BME280;32338;50.430;6.806;2023-02-16T07:53:02;65568.00;;;1.33;100.00
46614;BME280;32338;50.430;6.806;2023-02-16T07:55:31;65576.38;;;1.41;100.00
46614;BME280;32338;50.430;6.806;2023-02-16T07:57:59;65575.81;;;1.40;100.00
46614;BME280;32338;50.430;6.806;2023-02-16T08:00:26;65575.81;;;1.40;100.00
46614;BME280;32338;50.430;6.806;2023-02-16T08:02:54;65579.16;;;1.43;100.00
46614;BME280;32338;50.430;6.806;2023-02-16T08:05:21;65573.44;;;1.43;100.00
46614;BME280;32338;50.430;6.806;2023-02-16T08:07:48;65578.97;;;1.41;100.00
46614;BME280;32338;50.430;6.806;2023-02-16T08:10:15;65585.66;;;1.47;100.00
46614;BME280;32338;50.430;6.806;2023-02-16T08:12:42;65580.50;;;1.47;100.00
46614;BME280;32338;50.430;6.806;2023-02-16T08:15:09;65592.38;;;1.53;100.00
46614;BME280;32338;50.430;6.806;2023-02-16T08:17:37;65590.56;;;1.56;100.00
46614;BME280;32338;50.430;6.806;2023-02-16T08:20:07;65595.94;;;1.59;100.00
46614;BME280;32338;50.430;6.806;2023-02-16T08:22:34;65602.28;;;1.67;100.00
46614;BME280;32338;50.430;6.806;2023-02-16T08:25:01;65609.91;;;1.72;100.00
46614;BME280;32338;50.430;6.806;2023-02-16T08:27:29;65619.06;;;1.83;100.00
46614;BME280;32338;50.430;6.806;2023-02-16T08:29:56;65614.59;;;1.78;100.00
46614;BME280;32338;50.430;6.806;2023-02-16T08:32:22;65631.84;;;1.87;100.00
46614;BME280;32338;50.430;6.806;2023-02-16T08:34:49;65633.94;;;1.94;100.00
46614;BME280;32338;50.430;6.806;2023-02-16T08:37:17;65634.16;;;1.97;100.00
46614;BME280;32338;50.430;6.806;2023-02-16T08:39:44;65632.84;;;1.93;100.00
46614;BME280;32338;50.430;6.806;2023-02-16T08:42:11;65640.66;;;2.00;100.00
46614;BME280;32338;50.430;6.806;2023-02-16T08:44:38;65654.63;;;2.13;100.00
46614;BME280;32338;50.430;6.806;2023-02-16T08:47:07;65665.03;;;2.20;100.00
46614;BME280;32338;50.430;6.806;2023-02-16T08:49:35;65680.00;;;2.39;100.00
46614;BME280;32338;50.430;6.806;2023-02-16T08:52:02;65699.38;;;2.54;100.00
46614;BME280;32338;50.430;6.806;2023-02-16T08:54:31;65690.09;;;2.48;100.00
46614;BME280;32338;50.430;6.806;2023-02-16T08:56:58;65691.97;;;2.52;100.00
46614;BME280;32338;50.430;6.806;2023-02-16T08:59:27;65712.03;;;2.64;100.00
46614;BME280;32338;50.430;6.806;2023-02-16T09:01:54;65702.72;;;2.57;100.00
46614;BME280;32338;50.430;6.806;2023-02-16T09:04:21;65708.88;;;2.63;100.00
46614;BME280;32338;50.430;6.806;2023-02-16T09:06:48;65709.44;;;2.64;100.00
46614;BME280;32338;50.430;6.806;2023-02-16T09:09:17;65720.06;;;2.73;100.00
46614;BME280;32338;50.430;6.806;2023-02-16T09:11:46;65720.06;;;2.73;100.00
46614;BME280;32338;50.430;6.806;2023-02-16T09:14:13;65723.50;;;2.84;100.00
46614;BME280;32338;50.430;6.806;2023-02-16T09:16:40;65756.44;;;3.07;100.00
46614;BME280;32338;50.430;6.806;2023-02-16T09:19:11;65760.00;;;3.13;100.00
46614;BME280;32338;50.430;6.806;2023-02-16T09:21:39;65751.06;;;3.04;100.00
46614;BME280;32338;50.430;6.806;2023-02-16T09:24:09;65755.34;;;3.06;100.00
46614;BME280;32338;50.430;6.806;2023-02-16T09:26:37;65766.53;;;3.16;100.00
46614;BME280;32338;50.430;6.806;2023-02-16T09:29:10;65768.19;;;3.18;100.00
46614;BME280;32338;50.430;6.806;2023-02-16T09:31:39;65768.41;;;3.20;100.00
46614;BME280;32338;50.430;6.806;2023-02-16T09:34:14;65788.22;;;3.41;100.00
46614;BME280;32338;50.430;6.806;2023-02-16T09:36:42;65811.44;;;3.53;100.00
46614;BME280;32338;50.430;6.806;2023-02-16T09:39:09;65809.97;;;3.54;100.00
46614;BME280;32338;50.430;6.806;2023-02-16T09:44:37;65843.25;;;3.87;100.00
46614;BME280;32338;50.430;6.806;2023-02-16T09:47:12;65862.06;;;4.02;100.00
46614;BME280;32338;50.430;6.806;2023-02-16T09:49:44;65888.06;;;4.28;100.00
46614;BME280;32338;50.430;6.806;2023-02-16T09:52:18;65896.81;;;4.34;100.00
46614;BME280;32338;50.430;6.806;2023-02-16T09:54:48;65904.31;;;4.43;100.00
46614;BME280;32338;50.430;6.806;2023-02-16T09:57:21;65912.91;;;4.53;100.00
46614;BME280;32338;50.430;6.806;2023-02-16T09:59:58;65916.47;;;4.59;100.00
46614;BME280;32338;50.430;6.806;2023-02-16T10:02:46;65937.56;;;4.76;100.00
46614;BME280;32338;50.430;6.806;2023-02-16T10:05:24;65933.84;;;4.75;100.00
46614;BME280;32338;50.430;6.806;2023-02-16T10:08:04;65950.63;;;4.83;100.00
46614;BME280;32338;50.430;6.806;2023-02-16T10:10:45;65986.91;;;5.22;100.00
46614;BME280;32338;50.430;6.806;2023-02-16T10:13:19;65971.22;;;5.07;100.00
46614;BME280;32338;50.430;6.806;2023-02-16T10:15:49;65952.34;;;4.92;100.00
46614;BME280;32338;50.430;6.806;2023-02-16T10:18:22;65940.91;;;4.79;100.00
46614;BME280;32338;50.430;6.806;2023-02-16T10:20:54;65943.88;;;4.77;100.00
46614;BME280;32338;50.430;6.806;2023-02-16T10:23:30;65934.41;;;4.76;100.00
46614;BME280;32338;50.430;6.806;2023-02-16T10:26:03;65943.53;;;4.79;100.00
46614;BME280;32338;50.430;6.806;2023-02-16T10:28:39;65947.09;;;4.85;100.00
46614;BME280;32338;50.430;6.806;2023-02-16T10:31:12;65938.13;;;4.77;100.00
46614;BME280;32338;50.430;6.806;2023-02-16T10:33:43;65943.31;;;4.77;100.00
46614;BME280;32338;50.430;6.806;2023-02-16T10:36:19;65934.56;;;4.71;100.00
46614;BME280;32338;50.430;6.806;2023-02-16T10:38:54;65927.91;;;4.72;100.00
46614;BME280;32338;50.430;6.806;2023-02-16T10:41:28;65928.59;;;4.68;100.00
46614;BME280;32338;50.430;6.806;2023-02-16T10:44:00;65949.69;;;4.85;100.00
46614;BME280;32338;50.430;6.806;2023-02-16T10:46:36;65942.19;;;4.76;100.00
46614;BME280;32338;50.430;6.806;2023-02-16T10:49:04;65941.63;;;4.75;100.00
46614;BME280;32338;50.430;6.806;2023-02-16T10:51:36;65951.38;;;4.86;100.00
46614;BME280;32338;50.430;6.806;2023-02-16T10:54:06;65953.03;;;4.88;100.00
46614;BME280;32338;50.430;6.806;2023-02-16T10:56:44;65964.47;;;5.01;100.00
46614;BME280;32338;50.430;6.806;2023-02-16T10:59:15;65971.00;;;5.05;100.00
46614;BME280;32338;50.430;6.806;2023-02-16T11:01:46;65968.19;;;5.02;100.00
46614;BME280;32338;50.430;6.806;2023-02-16T11:04:35;65969.50;;;5.06;100.00
46614;BME280;32338;50.430;6.806;2023-02-16T11:07:04;65960.75;;;5.00;100.00
46614;BME280;32338;50.430;6.806;2023-02-16T11:09:31;65965.38;;;4.99;100.00
46614;BME280;32338;50.430;6.806;2023-02-16T11:11:58;65967.28;;;5.03;100.00
46614;BME280;32338;50.430;6.806;2023-02-16T11:14:28;65967.50;;;5.06;100.00
46614;BME280;32338;50.430;6.806;2023-02-16T11:17:06;65971.41;;;5.10;100.00
46614;BME280;32338;50.430;6.806;2023-02-16T11:19:36;65972.31;;;5.08;100.00
46614;BME280;32338;50.430;6.806;2023-02-16T11:22:05;65972.31;;;5.08;100.00
46614;BME280;32338;50.430;6.806;2023-02-16T11:24:34;65979.41;;;5.12;100.00
46614;BME280;32338;50.430;6.806;2023-02-16T11:27:04;65995.09;;;5.27;100.00
46614;BME280;32338;50.430;6.806;2023-02-16T11:29:32;66001.50;;;5.35;100.00
46614;BME280;32338;50.430;6.806;2023-02-16T11:32:05;66016.44;;;5.46;100.00
46614;BME280;32338;50.430;6.806;2023-02-16T11:34:34;66018.31;;;5.50;100.00
46614;BME280;32338;50.430;6.806;2023-02-16T11:37:05;66024.47;;;5.56;100.00
46614;BME280;32338;50.430;6.806;2023-02-16T11:39:36;66026.38;;;5.60;100.00
46614;BME280;32338;50.430;6.806;2023-02-16T11:42:06;66040.75;;;5.71;100.00
46614;BME280;32338;50.430;6.806;2023-02-16T11:44:36;66055.50;;;5.80;100.00
46614;BME280;32338;50.430;6.806;2023-02-16T11:47:19;66066.38;;;5.92;100.00
46614;BME280;32338;50.430;6.806;2023-02-16T11:49:48;66080.75;;;6.03;100.00
46614;BME280;32338;50.430;6.806;2023-02-16T11:52:24;66086.00;;;6.10;100.00
46614;BME280;32338;50.430;6.806;2023-02-16T11:54:52;66088.28;;;6.12;100.00
46614;BME280;32338;50.430;6.806;2023-02-16T11:57:24;66076.88;;;6.07;100.00
46614;BME280;32338;50.430;6.806;2023-02-16T11:59:53;66088.63;;;6.10;100.00
46614;BME280;32338;50.430;6.806;2023-02-16T12:05:34;66089.38;;;6.13;100.00
46614;BME280;32338;50.430;6.806;2023-02-16T12:08:19;66090.50;;;6.14;100.00
46614;BME280;32338;50.430;6.806;2023-02-16T12:11:00;66093.69;;;6.15;100.00
46614;BME280;32338;50.430;6.806;2023-02-16T12:13:36;66085.28;;;6.14;100.00
46614;BME280;32338;50.430;6.806;2023-02-16T12:16:18;66111.63;;;6.31;100.00
46614;BME280;32338;50.430;6.806;2023-02-16T12:18:58;66106.97;;;6.32;100.00
46614;BME280;32338;50.430;6.806;2023-02-16T12:21:35;66106.78;;;6.29;100.00
46614;BME280;32338;50.430;6.806;2023-02-16T12:24:11;66107.19;;;6.35;100.00
46614;BME280;32338;50.430;6.806;2023-02-16T12:26:46;66106.44;;;6.31;100.00
46614;BME280;32338;50.430;6.806;2023-02-16T12:29:25;66111.84;;;6.34;100.00
46614;BME280;32338;50.430;6.806;2023-02-16T12:32:07;66118.22;;;6.42;100.00
46614;BME280;32338;50.430;6.806;2023-02-16T12:34:42;66138.94;;;6.54;100.00
46614;BME280;32338;50.430;6.806;2023-02-16T12:37:20;66142.56;;;6.67;100.00
46614;BME280;32338;50.430;6.806;2023-02-16T12:39:55;66164.41;;;6.80;100.00
46614;BME280;32338;50.430;6.806;2023-02-16T12:42:42;66146.28;;;6.68;100.00
46614;BME280;32338;50.430;6.806;2023-02-16T12:45:17;66146.47;;;6.71;100.00
46614;BME280;32338;50.430;6.806;2023-02-16T12:47:48;66148.53;;;6.70;100.00
46614;BME280;32338;50.430;6.806;2023-02-16T12:50:20;66162.00;;;6.82;100.00
46614;BME280;32338;50.430;6.806;2023-02-16T12:52:53;66158.63;;;6.79;100.00
46614;BME280;32338;50.430;6.806;2023-02-16T12:55:26;66173.59;;;6.91;100.00
46614;BME280;32338;50.430;6.806;2023-02-16T12:58:01;66175.28;;;6.92;100.00
46614;BME280;32338;50.430;6.806;2023-02-16T13:00:41;66163.50;;;6.81;100.00
46614;BME280;32338;50.430;6.806;2023-02-16T13:03:22;66156.03;;;6.79;100.00
46614;BME280;32338;50.430;6.806;2023-02-16T13:05:59;66159.41;;;6.82;100.00
46614;BME280;32338;50.430;6.806;2023-02-16T13:08:34;66169.25;;;6.82;100.00
46614;BME280;32338;50.430;6.806;2023-02-16T13:11:06;66163.34;;;6.86;100.00
46614;BME280;32338;50.430;6.806;2023-02-16T13:13:36;66173.59;;;6.91;100.00
46614;BME280;32338;50.430;6.806;2023-02-16T13:16:07;66166.69;;;6.89;100.00
46614;BME280;32338;50.430;6.806;2023-02-16T13:18:39;66170.22;;;6.88;100.00
46614;BME280;32338;50.430;6.806;2023-02-16T13:21:12;66167.06;;;6.87;100.00
46614;BME280;32338;50.430;6.806;2023-02-16T13:23:53;66177.38;;;6.99;100.00